Time;durP1;ratioP1;P1;durP2;ratioP2;P2;SDS_P1;SDS_P2;PMS_P1;PMS_P2;Temp;Humidity;BMP_temperature;BMP_pressure;BME280_temperature;BME280_humidity;BME280_pressure;Samples;Min_cycle;Max_cycle;Signal;HPM_P1;HPM_P2
2021/05/14 00:02:20;;;;;;;1.07;1.07;;;;;;;12.77;73.72;97993.38;5112019;27;39642;-75
2021/05/14 00:04:47;;;;;;;1.53;1.00;;;;;;;12.86;73.95;98017.34;5112845;27;41599;-75
2021/05/14 00:07:18;;;;;;;1.10;1.00;;;;;;;12.81;73.79;98008.94;5111776;27;42451;-76
2021/05/14 00:09:45;;;;;;;2.30;1.50;;;;;;;12.79;74.04;98007.38;5110293;28;42185;-76
2021/05/14 00:12:12;;;;;;;1.70;1.10;;;;;;;12.72;73.96;98001.75;5092775;28;39863;-74
2021/05/14 00:14:39;;;;;;;1.40;1.30;;;;;;;12.58;74.04;97986.13;5111225;28;41385;-75
2021/05/14 00:17:07;;;;;;;1.50;1.30;;;;;;;12.70;74.09;98003.69;5110767;28;42651;-76
2021/05/14 00:19:34;;;;;;;3.00;1.43;;;;;;;12.65;74.12;98005.03;5111718;28;42114;-76
2021/05/14 00:22:02;;;;;;;1.50;1.40;;;;;;;12.61;74.43;98001.78;5094209;28;39085;-75
2021/05/14 00:24:29;;;;;;;1.67;1.10;;;;;;;12.49;73.73;97990.38;5111128;28;42453;-74
2021/05/14 00:26:56;;;;;;;0.90;0.90;;;;;;;12.47;74.00;97986.19;5111117;28;42399;-74
2021/05/14 00:29:23;;;;;;;1.80;1.10;;;;;;;12.56;74.06;98009.31;5112620;27;42208;-76
2021/05/14 00:31:51;;;;;;;1.23;1.13;;;;;;;12.26;74.49;97956.13;5111152;28;40333;-75
2021/05/14 00:34:18;;;;;;;1.27;1.27;;;;;;;12.45;74.21;97994.28;5111027;28;41758;-75
2021/05/14 00:36:46;;;;;;;1.47;1.10;;;;;;;12.51;74.37;98009.69;5110624;28;43426;-76
2021/05/14 00:39:13;;;;;;;1.70;1.20;;;;;;;12.51;73.92;98007.03;5094038;28;41387;-75
2021/05/14 00:41:40;;;;;;;1.47;1.30;;;;;;;12.48;73.87;98004.66;5111145;28;39149;-75
2021/05/14 00:44:28;;;;;;;1.83;1.30;;;;;;;12.47;73.91;98002.97;5094262;28;41013;-77
2021/05/14 00:46:55;;;;;;;1.00;1.00;;;;;;;12.45;73.69;98012.88;5093533;28;42832;-76
2021/05/14 00:49:24;;;;;;;1.20;1.10;;;;;;;12.39;73.80;97997.44;5145458;27;43063;-77
2021/05/14 00:51:51;;;;;;;1.27;1.17;;;;;;;12.42;73.62;98013.13;5111320;28;39686;-78
2021/05/14 00:54:19;;;;;;;1.00;1.00;;;;;;;12.40;73.42;98004.44;5112069;27;41677;-77
2021/05/14 00:56:47;;;;;;;2.07;1.03;;;;;;;12.35;73.62;98001.34;5128343;27;42110;-77
2021/05/14 00:59:15;;;;;;;2.20;1.20;;;;;;;12.39;73.62;98004.56;5110217;28;42143;-77
2021/05/14 01:01:42;;;;;;;1.33;1.10;;;;;;;12.36;73.49;97997.72;5110610;28;41002;-77
2021/05/14 01:04:09;;;;;;;1.13;1.00;;;;;;;12.30;73.11;97992.91;5144694;27;42153;-78
2021/05/14 01:06:37;;;;;;;1.27;1.17;;;;;;;12.36;73.37;98008.34;5111759;27;43444;-76
2021/05/14 01:09:04;;;;;;;0.70;0.70;;;;;;;12.34;73.29;98007.63;5110934;27;42005;-77
2021/05/14 01:11:32;;;;;;;1.53;1.10;;;;;;;12.32;72.99;98008.72;5093789;28;39933;-77
2021/05/14 01:13:59;;;;;;;1.37;1.27;;;;;;;12.15;72.84;97975.59;5109733;28;40633;-76
2021/05/14 01:16:27;;;;;;;1.00;1.00;;;;;;;12.30;72.74;98006.19;5093785;28;41738;-76
2021/05/14 01:18:55;;;;;;;1.10;1.00;;;;;;;12.27;72.61;97995.81;5093010;28;41216;-78
2021/05/14 01:21:23;;;;;;;1.93;1.10;;;;;;;12.15;72.44;97983.56;5110618;28;40558;-78
2021/05/14 01:23:51;;;;;;;1.77;1.00;;;;;;;12.25;72.29;97997.75;5109623;28;41678;-76
2021/05/14 01:26:20;;;;;;;2.53;1.13;;;;;;;12.23;72.57;98005.03;5111334;27;42561;-78
2021/05/14 01:28:48;;;;;;;1.77;1.17;;;;;;;12.12;72.23;97986.47;5110484;28;43009;-76
2021/05/14 01:31:15;;;;;;;1.47;0.80;;;;;;;12.14;72.45;97995.13;5109990;28;40003;-77
2021/05/14 01:33:42;;;;;;;1.83;1.00;;;;;;;12.11;72.25;97984.81;5112338;27;41708;-78
2021/05/14 01:36:11;;;;;;;2.00;1.00;;;;;;;12.07;72.39;97983.38;5092694;28;41863;-77
2021/05/14 01:38:39;;;;;;;1.03;0.97;;;;;;;12.02;72.30;97985.53;5110587;28;43136;-78
2021/05/14 01:41:07;;;;;;;1.20;0.90;;;;;;;12.13;71.94;97996.09;5109868;28;39598;-78
2021/05/14 01:43:34;;;;;;;0.80;0.80;;;;;;;12.12;72.10;97997.06;5110276;28;41443;-77
2021/05/14 01:46:02;;;;;;;1.00;0.90;;;;;;;12.08;71.47;97998.31;5109876;28;43153;-77
2021/05/14 01:48:29;;;;;;;0.83;0.83;;;;;;;12.09;71.51;98000.84;5109678;28;41508;-77
2021/05/14 01:50:57;;;;;;;1.23;0.97;;;;;;;12.07;71.85;97999.28;5111001;27;40892;-77
2021/05/14 01:53:24;;;;;;;1.37;0.90;;;;;;;12.06;71.78;97992.28;5126763;27;41644;-78
2021/05/14 01:55:53;;;;;;;1.10;1.00;;;;;;;12.03;71.95;98003.16;5109267;28;43298;-78
2021/05/14 01:58:20;;;;;;;1.00;0.90;;;;;;;12.00;71.79;97998.09;5109731;28;42500;-77
2021/05/14 02:00:47;;;;;;;0.83;0.83;;;;;;;11.99;72.14;97996.44;5110907;27;41846;-77
2021/05/14 02:03:14;;;;;;;1.37;1.10;;;;;;;12.00;71.71;97998.09;5109694;28;42398;-76
2021/05/14 02:05:41;;;;;;;1.20;0.97;;;;;;;11.98;71.54;97997.38;5109701;28;42790;-77
2021/05/14 02:08:08;;;;;;;1.23;1.10;;;;;;;11.99;71.46;98001.72;5110350;27;42984;-77
2021/05/14 02:10:36;;;;;;;0.90;0.90;;;;;;;11.99;71.41;97996.44;5109806;27;39531;-77
2021/05/14 02:13:04;;;;;;;1.07;0.90;;;;;;;11.88;71.64;97973.41;5109430;28;40828;-77
2021/05/14 02:15:32;;;;;;;1.23;0.90;;;;;;;11.97;71.18;97995.72;5109645;28;42651;-76
2021/05/14 02:17:59;;;;;;;0.80;0.80;;;;;;;11.97;71.68;97998.34;5109159;28;42668;-77
2021/05/14 02:20:27;;;;;;;3.23;1.00;;;;;;;11.94;71.26;98004.75;5110625;27;40542;-76
2021/05/14 02:22:54;;;;;;;0.93;0.90;;;;;;;11.77;71.29;97968.97;5110747;27;42426;-77
2021/05/14 02:25:21;;;;;;;0.87;0.87;;;;;;;11.91;71.02;98004.16;5110740;27;42460;-76
2021/05/14 02:27:48;;;;;;;0.73;0.70;;;;;;;11.90;71.16;98007.75;5093140;28;41196;-78
2021/05/14 02:30:18;;;;;;;1.20;1.03;;;;;;;11.88;71.32;98002.59;5109914;27;39896;-77
2021/05/14 02:32:46;;;;;;;1.10;1.00;;;;;;;11.64;71.02;97967.41;5110454;27;41504;-78
2021/05/14 02:35:14;;;;;;;0.80;0.80;;;;;;;11.85;70.85;98005.50;5110396;27;42466;-76
2021/05/14 02:37:42;;;;;;;2.93;0.70;;;;;;;11.83;71.15;98008.28;5108988;28;43007;-77
2021/05/14 02:40:10;;;;;;;1.00;0.90;;;;;;;11.80;71.01;98008.53;5108798;28;40265;-78
2021/05/14 02:42:37;;;;;;;0.70;0.70;;;;;;;11.79;70.95;98008.63;5111223;27;41703;-78
2021/05/14 02:45:05;;;;;;;0.70;0.70;;;;;;;11.69;71.36;97995.25;5091965;28;41733;-76
2021/05/14 02:47:33;;;;;;;0.70;0.70;;;;;;;11.75;71.51;98004.50;5109137;28;42204;-78
2021/05/14 02:50:01;;;;;;;1.20;0.90;;;;;;;11.72;71.38;97999.47;5109738;27;39652;-76
2021/05/14 02:52:29;;;;;;;0.77;0.77;;;;;;;11.71;71.43;97998.63;5091742;28;41673;-78
2021/05/14 02:54:56;;;;;;;1.27;1.10;;;;;;;11.34;71.32;97936.28;5110373;27;42674;-78
2021/05/14 02:57:24;;;;;;;1.10;1.00;;;;;;;11.68;71.27;97995.38;5109108;28;20229;-78
2021/05/14 02:59:51;;;;;;;1.00;0.80;;;;;;;11.64;71.43;97997.41;5108804;28;39156;-78
2021/05/14 03:02:18;;;;;;;0.70;0.70;;;;;;;11.64;71.41;97997.41;5108702;28;40724;-76
2021/05/14 03:04:46;;;;;;;1.50;0.80;;;;;;;11.62;71.54;97999.34;5091619;28;42696;-78
2021/05/14 03:07:14;;;;;;;0.83;0.80;;;;;;;11.47;71.69;97972.28;5109768;27;42921;-79
2021/05/14 03:09:41;;;;;;;1.33;0.73;;;;;;;11.57;71.38;97998.91;5108643;28;39558;-76
2021/05/14 03:12:09;;;;;;;0.80;0.80;;;;;;;11.50;71.29;97990.56;5089344;28;41888;-76
2021/05/14 03:14:36;;;;;;;1.33;1.00;;;;;;;11.61;71.77;98007.44;5107855;28;42774;-77
2021/05/14 03:17:04;;;;;;;0.73;0.60;;;;;;;11.60;71.58;98006.63;5107323;28;41946;-76
2021/05/14 03:19:31;;;;;;;0.70;0.70;;;;;;;11.55;71.61;98003.47;5108822;28;39725;-77
2021/05/14 03:21:59;;;;;;;1.10;0.90;;;;;;;11.58;71.17;98008.53;5108246;28;41073;-77
2021/05/14 03:24:26;;;;;;;0.80;0.80;;;;;;;11.57;71.03;98012.16;5109221;28;42592;-76
2021/05/14 03:26:53;;;;;;;0.80;0.73;;;;;;;11.54;71.29;98009.72;5107304;28;42674;-78
2021/05/14 03:29:21;;;;;;;0.70;0.70;;;;;;;11.55;71.41;98016.72;5108266;28;40709;-77
2021/05/14 03:31:48;;;;;;;0.80;0.80;;;;;;;11.54;71.32;98017.69;5107432;28;41526;-76
2021/05/14 03:34:16;;;;;;;1.33;1.03;;;;;;;11.57;71.32;98017.47;5107477;28;42510;-78
2021/05/14 03:36:43;;;;;;;1.10;1.00;;;;;;;11.52;71.27;98001.06;5108526;28;42297;-76
2021/05/14 03:39:11;;;;;;;1.00;0.80;;;;;;;11.57;71.49;98022.75;5107163;28;40060;-77
2021/05/14 03:41:48;;;;;;;0.83;0.80;;;;;;;11.57;71.19;98017.47;5107547;28;42474;-78
2021/05/14 03:44:15;;;;;;;1.37;0.90;;;;;;;11.54;71.23;98012.38;5108459;27;42628;-77
2021/05/14 03:46:42;;;;;;;1.40;0.90;;;;;;;11.51;71.36;98017.94;5107679;28;43002;-78
2021/05/14 03:49:09;;;;;;;0.67;0.67;;;;;;;11.48;71.19;98018.19;5107378;28;39932;-78
2021/05/14 03:51:38;;;;;;;1.33;1.00;;;;;;;11.43;71.32;98004.44;5108958;27;42069;-76
2021/05/14 03:54:06;;;;;;;1.03;0.73;;;;;;;11.47;71.27;98021.81;5106961;28;42917;-77
2021/05/14 03:56:34;;;;;;;1.07;0.90;;;;;;;11.48;71.17;98018.19;5091192;28;41366;-77
2021/05/14 03:59:01;;;;;;;0.83;0.80;;;;;;;11.49;71.54;98014.59;5109651;27;39810;-76
2021/05/14 04:01:29;;;;;;;1.03;0.90;;;;;;;11.51;71.03;98015.28;5109627;27;41444;-77
2021/05/14 04:03:56;;;;;;;0.80;0.80;;;;;;;11.48;71.16;98008.44;5108745;27;43549;-77
2021/05/14 04:06:24;;;;;;;0.97;0.83;;;;;;;11.55;71.43;98011.44;5109643;27;42240;-77
2021/05/14 04:08:51;;;;;;;2.97;1.10;;;;;;;11.57;70.52;98016.59;5108845;27;39986;-77
2021/05/14 04:14:31;;;;;;;0.80;0.80;;;;;;;11.58;71.04;98015.66;5060554;28;43067;-76
2021/05/14 04:16:59;;;;;;;1.67;0.80;;;;;;;11.56;70.97;98018.41;5106349;28;42193;-77
2021/05/14 04:19:26;;;;;;;0.80;0.80;;;;;;;11.55;70.88;98013.22;5091251;28;41129;-78
2021/05/14 04:21:55;;;;;;;1.00;0.90;;;;;;;11.44;70.81;98017.59;5106540;28;42475;-78
2021/05/14 04:24:23;;;;;;;2.57;1.30;;;;;;;11.41;71.18;98019.63;5091144;28;44693;-77
2021/05/14 04:26:51;;;;;;;1.03;1.00;;;;;;;11.36;71.04;98020.00;5108588;27;42904;-77
2021/05/14 04:29:20;;;;;;;0.90;0.87;;;;;;;11.15;71.07;97996.03;5091200;28;39006;-75
2021/05/14 04:31:47;;;;;;;1.30;0.80;;;;;;;11.30;71.44;98030.25;5107759;28;40787;-76
2021/05/14 04:34:16;;;;;;;0.90;0.90;;;;;;;11.27;71.18;98030.47;5105685;28;43004;-77
2021/05/14 04:36:43;;;;;;;2.07;0.80;;;;;;;11.19;71.32;98017.84;5107180;28;42300;-77
2021/05/14 04:39:11;;;;;;;1.43;0.90;;;;;;;11.21;71.29;98025.66;5106323;28;39559;-77
2021/05/14 04:41:39;;;;;;;0.83;0.83;;;;;;;11.21;71.53;98033.63;5107093;28;41405;-77
2021/05/14 04:44:07;;;;;;;0.80;0.80;;;;;;;11.22;71.34;98037.97;5112047;27;43203;-76
2021/05/14 04:46:35;;;;;;;0.90;0.90;;;;;;;11.19;71.31;98030.25;5111604;27;42185;-76
2021/05/14 04:49:03;;;;;;;0.97;0.90;;;;;;;11.19;71.43;98032.88;5110812;28;39913;-77
2021/05/14 04:51:30;;;;;;;1.47;1.07;;;;;;;11.18;71.52;98031.19;5108730;28;41429;-75
2021/05/14 04:53:58;;;;;;;1.50;0.90;;;;;;;11.15;71.52;98025.16;5109370;28;42627;-77
2021/05/14 04:56:25;;;;;;;0.80;0.80;;;;;;;11.16;71.04;98029.50;5109222;28;42054;-77
2021/05/14 04:58:52;;;;;;;7.03;5.13;;;;;;;11.06;71.06;98017.94;5111658;27;39600;-77
2021/05/14 05:01:19;;;;;;;3.50;2.70;;;;;;;11.16;71.07;98036.63;5111794;27;42483;-76
2021/05/14 05:03:51;;;;;;;2.90;2.40;;;;;;;11.15;71.20;98029.63;5110098;28;42776;-76
2021/05/14 05:06:18;;;;;;;2.40;1.80;;;;;;;11.20;71.20;98035.41;5128105;27;42077;-77
2021/05/14 05:08:46;;;;;;;2.20;1.53;;;;;;;11.32;70.69;98039.75;5110107;28;41236;-76
2021/05/14 05:11:13;;;;;;;2.03;1.40;;;;;;;11.37;71.03;98037.59;5109818;28;41611;-76
2021/05/14 05:13:41;;;;;;;1.50;1.10;;;;;;;11.44;71.04;98038.78;5110983;28;41714;-76
2021/05/14 05:16:08;;;;;;;1.90;1.00;;;;;;;11.53;70.94;98047.81;5110071;28;42996;-77
2021/05/14 05:18:37;;;;;;;0.90;0.90;;;;;;;11.60;70.72;98043.75;5093724;28;38955;-76
2021/05/14 05:21:05;;;;;;;1.87;1.40;;;;;;;11.63;70.09;98032.00;5110784;27;42397;-76
2021/05/14 05:23:33;;;;;;;1.40;1.30;;;;;;;11.77;70.08;98048.56;5093932;28;42091;-77
2021/05/14 05:26:03;;;;;;;1.07;0.90;;;;;;;11.60;70.15;98011.91;5110333;27;42288;-75
2021/05/14 05:28:32;;;;;;;1.03;1.00;;;;;;;11.88;70.11;98045.03;5110387;28;39686;-76
2021/05/14 05:30:59;;;;;;;1.67;1.20;;;;;;;11.93;69.80;98034.06;5092286;28;40901;-77
2021/05/14 05:33:27;;;;;;;1.20;1.10;;;;;;;12.08;69.47;98044.28;5093485;28;43157;-76
2021/05/14 05:35:55;;;;;;;1.87;1.00;;;;;;;12.16;69.61;98043.63;5111175;27;42344;-76
2021/05/14 05:38:24;;;;;;;2.20;1.07;;;;;;;12.13;68.99;98035.91;5111516;27;39889;-76
2021/05/14 05:40:51;;;;;;;1.53;1.10;;;;;;;12.32;69.06;98051.19;5110646;27;42468;-79
2021/05/14 05:43:19;;;;;;;0.93;0.90;;;;;;;12.38;68.95;98063.94;5096640;27;42703;-80
2021/05/14 05:45:47;;;;;;;1.80;1.20;;;;;;;12.48;68.55;98063.09;5108321;28;41893;-75
2021/05/14 05:48:14;;;;;;;2.40;1.27;;;;;;;12.55;68.11;98056.28;5109334;28;40778;-78
2021/05/14 05:50:42;;;;;;;1.57;0.70;;;;;;;12.64;67.72;98056.47;5110629;28;42099;-78
2021/05/14 05:53:12;;;;;;;2.30;1.00;;;;;;;12.69;67.59;98051.63;5106371;27;42622;-81
2021/05/14 05:55:40;;;;;;;1.20;0.90;;;;;;;12.82;67.29;98066.41;5109350;27;42432;-77
2021/05/14 05:58:08;;;;;;;1.97;1.00;;;;;;;12.90;67.15;98052.47;5108094;28;42030;-76
2021/05/14 06:00:36;;;;;;;2.30;1.10;;;;;;;13.10;66.51;98064.09;5108834;28;42239;-77
2021/05/14 06:03:03;;;;;;;1.50;1.20;;;;;;;13.25;66.57;98063.63;5108856;27;44025;-76
2021/05/14 06:05:31;;;;;;;2.53;1.00;;;;;;;13.39;66.62;98069.56;5092329;28;41376;-77
2021/05/14 06:07:58;;;;;;;1.03;0.93;;;;;;;13.48;66.07;98066.94;5109892;27;39960;-79
2021/05/14 06:10:28;;;;;;;2.70;1.00;;;;;;;13.66;65.12;98077.81;5144123;27;42408;-78
2021/05/14 06:12:56;;;;;;;2.37;0.90;;;;;;;13.92;64.13;98081.69;5109926;27;42488;-78
2021/05/14 06:15:24;;;;;;;3.80;1.20;;;;;;;14.20;63.21;98085.41;5110457;27;42642;-76
2021/05/14 06:17:51;;;;;;;0.93;0.80;;;;;;;14.61;62.68;98087.03;5107635;28;40015;-80
2021/05/14 06:20:20;;;;;;;2.03;1.10;;;;;;;14.94;61.42;98093.75;5111406;27;41798;-81
2021/05/14 06:22:48;;;;;;;1.63;0.90;;;;;;;15.09;60.86;98094.97;5109236;28;41914;-82
2021/05/14 06:25:15;;;;;;;1.10;0.90;;;;;;;15.15;60.21;98093.59;5110139;27;42435;-76
2021/05/14 06:27:42;;;;;;;2.07;0.90;;;;;;;15.11;59.76;98089.50;5110108;27;40653;-77
2021/05/14 06:30:13;;;;;;;2.40;0.97;;;;;;;15.14;60.48;98093.72;5142489;27;42410;-77
2021/05/14 06:32:40;;;;;;;0.93;0.90;;;;;;;15.16;58.92;98103.28;5109686;27;42892;-76
2021/05/14 06:35:08;;;;;;;2.30;0.93;;;;;;;15.07;59.18;98078.31;5114079;27;42547;-77
2021/05/14 06:37:37;;;;;;;2.00;0.90;;;;;;;15.35;59.04;98108.56;5095822;28;38877;-75
2021/05/14 06:40:06;;;;;;;1.53;1.17;;;;;;;15.63;58.42;98106.00;5114566;28;41799;-77
2021/05/14 06:42:33;;;;;;;2.00;0.83;;;;;;;15.94;57.38;98120.78;5117097;27;42957;-77
2021/05/14 06:45:00;;;;;;;1.23;0.97;;;;;;;16.37;56.66;98124.59;5115035;28;43152;-76
2021/05/14 06:47:28;;;;;;;1.10;0.90;;;;;;;17.03;55.76;98124.31;5114674;28;39037;-75
2021/05/14 06:49:56;;;;;;;1.63;0.60;;;;;;;17.70;53.66;98133.50;5111319;28;41751;-77
2021/05/14 06:52:26;;;;;;;0.83;0.80;;;;;;;18.17;53.57;98131.25;5091641;28;41708;-77
2021/05/14 06:54:53;;;;;;;0.93;0.93;;;;;;;18.09;52.62;98128.53;5108691;28;42381;-77
2021/05/14 06:57:26;;;;;;;1.10;0.80;;;;;;;17.84;52.77;98141.81;5106785;28;40109;-78
2021/05/14 06:59:53;;;;;;;2.23;0.87;;;;;;;17.74;54.17;98129.53;5109803;27;41414;-78
2021/05/14 07:02:20;;;;;;;3.23;0.73;;;;;;;17.70;54.38;98117.44;5110072;28;41772;-79
2021/05/14 07:04:52;;;;;;;1.03;0.80;;;;;;;17.65;54.73;98117.09;5109817;28;42180;-73
2021/05/14 07:07:19;;;;;;;0.97;0.93;;;;;;;17.69;53.20;98134.50;5108506;27;40697;-76
2021/05/14 07:09:46;;;;;;;1.37;0.90;;;;;;;17.73;53.21;98134.03;5092174;28;40966;-79
2021/05/14 07:12:17;;;;;;;2.97;0.90;;;;;;;18.01;52.30;98133.84;5126076;27;43283;-78
2021/05/14 07:14:44;;;;;;;1.47;1.00;;;;;;;18.55;51.90;98140.56;5108289;28;42394;-75
2021/05/14 07:17:11;;;;;;;1.37;0.93;;;;;;;19.19;50.83;98150.63;5091300;28;39895;-79
2021/05/14 07:19:38;;;;;;;2.17;1.00;;;;;;;19.66;49.27;98158.00;5108910;28;41467;-78
2021/05/14 07:22:06;;;;;;;1.83;0.80;;;;;;;20.13;48.82;98155.38;5107099;28;42708;-78
2021/05/14 07:24:34;;;;;;;2.47;0.90;;;;;;;20.99;46.53;98168.78;5108601;28;43413;-76
2021/05/14 07:27:01;;;;;;;1.20;1.10;;;;;;;22.45;42.66;98193.59;5107999;27;40688;-77
2021/05/14 07:29:28;;;;;;;4.97;1.10;;;;;;;23.92;38.94;98209.34;5092146;28;41199;-79
2021/05/14 07:31:55;;;;;;;0.77;0.70;;;;;;;25.07;36.71;98216.91;5107475;28;43582;-77
2021/05/14 07:34:22;;;;;;;1.20;0.60;;;;;;;26.04;35.63;98209.97;5108731;28;41443;-77
2021/05/14 07:36:50;;;;;;;1.73;0.70;;;;;;;26.80;33.25;98236.56;5090886;28;41018;-77
2021/05/14 07:39:18;;;;;;;3.17;0.70;;;;;;;26.73;33.60;98233.03;5109470;27;42472;-77
2021/05/14 07:41:45;;;;;;;0.80;0.60;;;;;;;26.30;33.39;98230.84;5090332;28;42788;-77
2021/05/14 07:44:12;;;;;;;0.63;0.60;;;;;;;25.55;35.40;98223.91;5107845;27;41975;-79
2021/05/14 07:46:42;;;;;;;0.93;0.80;;;;;;;24.76;35.58;98211.94;5090708;28;40088;-77
2021/05/14 07:49:09;;;;;;;1.20;0.90;;;;;;;24.06;37.28;98200.28;5091145;28;40815;-84
2021/05/14 07:51:36;;;;;;;2.90;0.80;;;;;;;23.56;38.85;98187.81;5109105;27;42393;-83
2021/05/14 07:54:04;;;;;;;2.70;2.17;;;;;;;23.23;39.28;98185.63;5141926;27;42292;-80
2021/05/14 07:56:36;;;;;;;1.40;0.80;;;;;;;23.50;37.99;98193.97;5107279;28;38798;-77
2021/05/14 07:59:03;;;;;;;0.80;0.80;;;;;;;24.34;37.40;98198.44;5108653;27;42480;-78
2021/05/14 08:01:30;;;;;;;0.80;0.80;;;;;;;24.62;36.59;98202.94;5106595;28;42814;-79
2021/05/14 08:03:58;;;;;;;1.90;0.90;;;;;;;24.26;37.20;98160.69;5107338;28;42287;-77
2021/05/14 08:06:25;;;;;;;0.77;0.77;;;;;;;24.38;35.35;98215.09;5090186;28;40235;-77
2021/05/14 08:08:54;;;;;;;0.80;0.70;;;;;;;24.20;37.42;98203.94;5087595;28;41107;-79
2021/05/14 08:11:21;;;;;;;0.70;0.67;;;;;;;23.98;36.02;98208.56;5089050;28;42558;-76
2021/05/14 08:13:49;;;;;;;0.70;0.70;;;;;;;24.04;35.97;98213.16;5089449;28;43191;-75
2021/05/14 08:16:16;;;;;;;0.73;0.73;;;;;;;24.03;35.42;98192.56;5088894;28;42704;-79
2021/05/14 08:18:44;;;;;;;0.73;0.50;;;;;;;24.16;36.37;98208.06;5092707;28;42809;-77
2021/05/14 08:21:11;;;;;;;1.23;0.77;;;;;;;24.44;33.45;98214.31;5111896;27;42442;-81
2021/05/14 08:23:40;;;;;;;0.63;0.50;;;;;;;25.26;32.74;98229.66;5111964;27;42440;-78
2021/05/14 08:26:07;;;;;;;1.70;0.60;;;;;;;26.25;31.13;98235.19;5112364;27;41024;-77
2021/05/14 08:28:35;;;;;;;1.83;0.70;;;;;;;26.68;28.68;98233.69;5110207;28;41644;-77
2021/05/14 08:31:03;;;;;;;1.53;0.50;;;;;;;27.07;28.96;98250.94;5112365;27;43467;-77
2021/05/14 08:33:31;;;;;;;1.53;0.50;;;;;;;27.71;29.02;98244.50;5094235;28;41453;-78
2021/05/14 08:35:58;;;;;;;0.90;0.80;;;;;;;28.70;26.54;98263.53;5109640;28;39777;-79
2021/05/14 08:38:26;;;;;;;1.50;0.73;;;;;;;30.02;25.32;98271.97;5108230;28;41921;-79
2021/05/14 08:40:53;;;;;;;0.60;0.50;;;;;;;31.54;25.26;98264.44;5110428;28;42820;-78
2021/05/14 08:43:22;;;;;;;1.07;0.70;;;;;;;33.37;23.60;98279.22;5110948;28;41246;-80
2021/05/14 08:45:49;;;;;;;0.60;0.60;;;;;;;34.89;20.88;98286.09;5110538;28;40240;-78
2021/05/14 08:48:18;;;;;;;0.63;0.63;;;;;;;36.10;19.36;98305.03;5109158;28;41791;-78
2021/05/14 08:50:45;;;;;;;1.77;0.63;;;;;;;37.01;18.22;98298.66;5093518;28;41934;-79
2021/05/14 08:53:12;;;;;;;0.97;0.60;;;;;;;36.46;16.75;98314.19;5110476;28;41032;-79
2021/05/14 08:55:42;;;;;;;0.70;0.67;;;;;;;35.27;18.62;98283.00;5110047;28;39295;-80
2021/05/14 08:58:09;;;;;;;1.80;0.80;;;;;;;34.50;19.69;98275.38;5110399;28;42260;-76
2021/05/14 09:00:36;;;;;;;2.27;0.60;;;;;;;33.65;20.60;98270.72;5111052;28;42700;-79
2021/05/14 09:03:11;;;;;;;1.23;0.70;;;;;;;33.12;20.35;98271.47;5110021;27;43260;-78
2021/05/14 09:05:41;;;;;;;0.67;0.60;;;;;;;32.46;21.07;98270.50;5112505;27;39864;-79
2021/05/14 09:08:08;;;;;;;0.90;0.70;;;;;;;31.98;22.13;98254.63;5111550;27;42156;-81
2021/05/14 09:10:35;;;;;;;25.97;22.37;;;;;;;31.59;22.18;98246.22;5111817;27;43545;-78
2021/05/14 09:13:11;;;;;;;3.07;2.60;;;;;;;31.13;21.81;98252.72;5111157;27;43114;-81
2021/05/14 09:15:41;;;;;;;1.20;0.60;;;;;;;30.96;22.70;98249.88;5111963;27;41291;-79
2021/05/14 09:18:14;;;;;;;0.83;0.60;;;;;;;30.64;23.04;98229.50;5110415;27;41686;-82
2021/05/14 09:20:45;;;;;;;0.73;0.50;;;;;;;30.60;23.52;98237.34;5110787;28;43806;-77
2021/05/14 09:23:34;;;;;;;1.20;0.60;;;;;;;30.80;23.11;98242.41;5092808;28;41180;-79
2021/05/14 09:26:06;;;;;;;0.80;0.53;;;;;;;31.20;22.01;98241.63;5108001;28;40010;-77
2021/05/14 09:28:36;;;;;;;0.77;0.47;;;;;;;30.85;21.36;98256.19;5109104;28;42075;-79
2021/05/14 09:31:12;;;;;;;0.50;0.50;;;;;;;30.65;23.87;98228.44;5092389;28;43068;-81
2021/05/14 09:33:40;;;;;;;1.23;0.67;;;;;;;30.85;21.97;98249.91;5091898;28;42017;-80
2021/05/14 09:36:10;;;;;;;0.47;0.47;;;;;;;30.61;21.83;98249.09;5093220;28;40108;-75
2021/05/14 09:38:46;;;;;;;0.70;0.40;;;;;;;30.04;22.30;98248.81;5092312;28;41911;-77
2021/05/14 09:41:28;;;;;;;2.03;0.70;;;;;;;29.41;23.59;98246.59;5111982;27;43256;-77
2021/05/14 09:44:00;;;;;;;0.40;0.40;;;;;;;29.09;23.24;98250.56;5108513;28;42276;-78
2021/05/14 09:46:32;;;;;;;0.50;0.40;;;;;;;28.76;24.65;98240.84;5110747;27;40386;-78
2021/05/14 09:49:00;;;;;;;0.93;0.47;;;;;;;28.61;25.89;98218.59;5110942;27;41764;-78
2021/05/14 09:51:29;;;;;;;2.03;0.50;;;;;;;28.16;24.76;98207.09;5109985;28;41846;-78
2021/05/14 09:53:57;;;;;;;0.83;0.70;;;;;;;28.10;24.88;98216.97;5110184;27;41755;-80
2021/05/14 09:56:29;;;;;;;1.23;0.50;;;;;;;28.03;25.28;98223.53;5109631;28;39963;-77
2021/05/14 09:58:59;;;;;;;0.87;0.40;;;;;;;27.96;25.86;98218.16;5108130;28;42632;-78
2021/05/14 10:01:27;;;;;;;0.53;0.50;;;;;;;27.78;24.89;98205.31;5092833;28;41664;-78
2021/05/14 10:03:56;;;;;;;1.23;0.60;;;;;;;27.89;25.33;98226.38;5108467;28;42233;-77
2021/05/14 10:06:24;;;;;;;0.63;0.60;;;;;;;27.83;25.49;98212.81;5143944;27;40594;-79
2021/05/14 10:08:54;;;;;;;0.70;0.60;;;;;;;28.89;24.81;98218.94;5093139;28;41645;-77
2021/05/14 10:11:22;;;;;;;2.43;0.60;;;;;;;30.63;23.77;98225.09;5110583;28;42147;-81
2021/05/14 10:13:52;;;;;;;0.73;0.63;;;;;;;31.48;21.60;98227.94;5110269;28;41936;-79
2021/05/14 10:16:19;;;;;;;1.17;0.60;;;;;;;31.21;21.89;98226.88;5105002;28;40664;-79
2021/05/14 10:18:50;;;;;;;0.73;0.60;;;;;;;32.10;22.48;98219.75;5072395;28;41904;-78
2021/05/14 10:21:18;;;;;;;1.33;0.90;;;;;;;33.71;19.43;98239.47;5090938;28;42318;-79
2021/05/14 10:23:46;;;;;;;0.97;0.70;;;;;;;34.63;19.84;98240.25;5109299;28;42163;-78
2021/05/14 10:26:14;;;;;;;1.33;0.80;;;;;;;33.95;20.53;98244.66;5109041;28;39846;-78
2021/05/14 10:28:46;;;;;;;4.00;1.10;;;;;;;32.73;19.97;98240.50;5109741;28;42091;-79
2021/05/14 10:31:27;;;;;;;0.87;0.60;;;;;;;31.96;21.06;98223.91;5108228;28;42635;-77
2021/05/14 10:33:58;;;;;;;1.03;0.40;;;;;;;31.84;20.19;98240.41;5091908;28;43718;-78
2021/05/14 10:36:46;;;;;;;1.03;0.60;;;;;;;32.37;21.14;98228.97;5108039;28;39751;-78
2021/05/14 10:39:16;;;;;;;0.47;0.40;;;;;;;31.75;21.59;98229.03;5108343;28;41666;-77
2021/05/14 10:42:01;;;;;;;0.40;0.40;;;;;;;30.86;21.59;98232.41;5124953;27;42032;-78
2021/05/14 10:44:55;;;;;;;0.93;0.50;;;;;;;29.94;22.85;98215.75;5111251;27;41960;-85
2021/05/14 10:47:47;;;;;;;0.93;0.30;;;;;;;29.10;24.05;98208.59;5105366;28;40670;-84
2021/05/14 10:50:39;;;;;;;4.50;4.10;;;;;;;28.41;24.67;98207.91;5087963;28;41638;-83
2021/05/14 10:53:31;;;;;;;1.20;1.10;;;;;;;28.09;25.19;98196.25;5103870;28;41908;-77
2021/05/14 10:56:26;;;;;;;1.57;0.50;;;;;;;27.98;25.60;98199.72;5088795;28;42980;-78
2021/05/14 10:59:07;;;;;;;0.50;0.50;;;;;;;28.13;26.06;98202.94;5089349;28;40378;-77
2021/05/14 11:01:36;;;;;;;0.40;0.40;;;;;;;28.26;25.29;98195.72;5092274;28;41748;-76
2021/05/14 11:04:40;;;;;;;0.40;0.40;;;;;;;28.86;25.26;98194.00;5106872;28;42578;-77
2021/05/14 11:07:36;;;;;;;0.63;0.50;;;;;;;29.11;24.09;98210.25;5090441;28;41842;-78
2021/05/14 11:10:26;;;;;;;0.63;0.50;;;;;;;29.57;23.63;98207.72;5107424;28;40611;-83
2021/05/14 11:12:53;;;;;;;0.87;0.57;;;;;;;30.28;23.61;98195.88;5091599;28;40843;-77
2021/05/14 11:15:38;;;;;;;0.40;0.40;;;;;;;30.32;22.88;98205.22;5109044;27;43437;-77
2021/05/14 11:18:32;;;;;;;1.10;0.40;;;;;;;29.82;23.99;98193.06;5106973;28;42955;-78
2021/05/14 11:20:59;;;;;;;1.00;0.50;;;;;;;29.28;23.55;98208.56;5060549;28;40060;-78
2021/05/14 11:23:34;;;;;;;0.83;0.60;;;;;;;28.91;24.75;98197.72;5108605;27;41508;-77
2021/05/14 11:26:03;;;;;;;1.00;0.50;;;;;;;28.56;24.31;98207.56;5107793;28;42677;-78
2021/05/14 11:28:45;;;;;;;1.30;0.40;;;;;;;28.45;26.00;98178.31;5091642;28;42124;-83
2021/05/14 11:31:19;;;;;;;1.60;0.70;;;;;;;29.11;26.12;98167.47;5109437;28;38871;-81
2021/05/14 11:33:47;;;;;;;0.77;0.50;;;;;;;29.99;25.48;98180.41;5110061;27;41695;-83
2021/05/14 11:36:14;;;;;;;0.80;0.60;;;;;;;30.74;24.09;98196.91;5091898;28;41312;-85
2021/05/14 11:38:46;;;;;;;1.07;0.63;;;;;;;30.87;24.52;98191.16;5109694;27;42220;-80
2021/05/14 11:41:18;;;;;;;0.90;0.70;;;;;;;30.43;23.37;98208.19;5091684;28;39151;-83
2021/05/14 11:44:00;;;;;;;1.33;0.60;;;;;;;30.07;23.96;98199.16;5089410;28;41797;-80
2021/05/14 11:46:31;;;;;;;0.80;0.53;;;;;;;29.80;24.27;98203.38;5090885;28;43489;-85
2021/05/14 11:49:04;;;;;;;0.50;0.50;;;;;;;28.89;25.42;98196.28;5107740;28;41266;-82